sensor_id;sensor_type;location;lat;lon;timestamp;P1;durP1;ratioP1;P2;durP2;ratioP2
41446;SDS011;27185;52.040;4.490;2023-09-30T00:01:43;11.88;;;4.43;;
41446;SDS011;27185;52.040;4.490;2023-09-30T00:04:29;10.65;;;3.97;;
41446;SDS011;27185;52.040;4.490;2023-09-30T00:07:15;10.88;;;4.60;;
41446;SDS011;27185;52.040;4.490;2023-09-30T00:10:01;9.65;;;3.67;;
41446;SDS011;27185;52.040;4.490;2023-09-30T00:12:48;8.27;;;3.90;;
41446;SDS011;27185;52.040;4.490;2023-09-30T00:15:33;8.63;;;3.83;;
41446;SDS011;27185;52.040;4.490;2023-09-30T00:18:19;8.30;;;3.65;;
41446;SDS011;27185;52.040;4.490;2023-09-30T00:21:04;8.57;;;3.65;;
41446;SDS011;27185;52.040;4.490;2023-09-30T00:23:51;7.45;;;3.63;;
41446;SDS011;27185;52.040;4.490;2023-09-30T00:26:36;7.78;;;3.80;;
41446;SDS011;27185;52.040;4.490;2023-09-30T00:29:22;6.82;;;3.17;;
41446;SDS011;27185;52.040;4.490;2023-09-30T00:32:07;7.95;;;3.65;;
41446;SDS011;27185;52.040;4.490;2023-09-30T00:34:53;8.20;;;3.65;;
41446;SDS011;27185;52.040;4.490;2023-09-30T00:37:40;7.28;;;3.15;;
41446;SDS011;27185;52.040;4.490;2023-09-30T00:40:28;8.13;;;3.33;;
41446;SDS011;27185;52.040;4.490;2023-09-30T00:43:18;7.10;;;3.47;;
41446;SDS011;27185;52.040;4.490;2023-09-30T00:46:06;5.93;;;3.03;;
41446;SDS011;27185;52.040;4.490;2023-09-30T00:49:13;9.23;;;3.75;;
41446;SDS011;27185;52.040;4.490;2023-09-30T00:51:59;5.70;;;2.95;;
41446;SDS011;27185;52.040;4.490;2023-09-30T00:54:47;10.65;;;3.00;;
41446;SDS011;27185;52.040;4.490;2023-09-30T00:57:35;12.02;;;3.35;;
41446;SDS011;27185;52.040;4.490;2023-09-30T01:00:21;8.18;;;3.30;;
41446;SDS011;27185;52.040;4.490;2023-09-30T01:03:10;11.25;;;3.65;;
41446;SDS011;27185;52.040;4.490;2023-09-30T01:05:57;8.53;;;3.40;;
41446;SDS011;27185;52.040;4.490;2023-09-30T01:08:43;9.07;;;3.00;;
41446;SDS011;27185;52.040;4.490;2023-09-30T01:11:29;6.63;;;2.75;;
41446;SDS011;27185;52.040;4.490;2023-09-30T01:14:27;10.57;;;3.58;;
41446;SDS011;27185;52.040;4.490;2023-09-30T01:17:14;6.63;;;2.90;;
41446;SDS011;27185;52.040;4.490;2023-09-30T01:20:00;6.32;;;2.45;;
41446;SDS011;27185;52.040;4.490;2023-09-30T01:22:48;6.45;;;3.10;;
41446;SDS011;27185;52.040;4.490;2023-09-30T01:25:34;6.63;;;2.80;;
41446;SDS011;27185;52.040;4.490;2023-09-30T01:28:19;7.40;;;3.47;;
41446;SDS011;27185;52.040;4.490;2023-09-30T01:31:05;7.82;;;3.40;;
41446;SDS011;27185;52.040;4.490;2023-09-30T01:33:51;10.75;;;3.85;;
41446;SDS011;27185;52.040;4.490;2023-09-30T01:36:39;6.18;;;2.50;;
41446;SDS011;27185;52.040;4.490;2023-09-30T01:39:25;9.32;;;3.75;;
41446;SDS011;27185;52.040;4.490;2023-09-30T01:42:10;7.72;;;3.50;;
41446;SDS011;27185;52.040;4.490;2023-09-30T01:44:56;9.25;;;4.07;;
41446;SDS011;27185;52.040;4.490;2023-09-30T01:47:42;11.85;;;4.60;;
41446;SDS011;27185;52.040;4.490;2023-09-30T01:50:28;9.88;;;4.15;;
41446;SDS011;27185;52.040;4.490;2023-09-30T01:53:14;8.13;;;4.15;;
41446;SDS011;27185;52.040;4.490;2023-09-30T01:55:59;9.27;;;4.20;;
41446;SDS011;27185;52.040;4.490;2023-09-30T01:58:45;7.47;;;3.88;;
41446;SDS011;27185;52.040;4.490;2023-09-30T02:01:30;8.23;;;3.88;;
41446;SDS011;27185;52.040;4.490;2023-09-30T02:04:16;10.20;;;4.70;;
41446;SDS011;27185;52.040;4.490;2023-09-30T02:07:02;8.95;;;4.57;;
41446;SDS011;27185;52.040;4.490;2023-09-30T02:09:47;8.43;;;4.85;;
41446;SDS011;27185;52.040;4.490;2023-09-30T02:12:34;10.07;;;4.32;;
41446;SDS011;27185;52.040;4.490;2023-09-30T02:15:20;7.75;;;4.75;;
41446;SDS011;27185;52.040;4.490;2023-09-30T02:18:06;9.75;;;4.63;;
41446;SDS011;27185;52.040;4.490;2023-09-30T02:20:52;11.35;;;5.28;;
41446;SDS011;27185;52.040;4.490;2023-09-30T02:23:39;7.32;;;4.05;;
41446;SDS011;27185;52.040;4.490;2023-09-30T02:26:25;6.80;;;3.97;;
41446;SDS011;27185;52.040;4.490;2023-09-30T02:29:12;9.48;;;4.53;;
41446;SDS011;27185;52.040;4.490;2023-09-30T02:31:58;9.82;;;4.05;;
41446;SDS011;27185;52.040;4.490;2023-09-30T02:34:43;7.65;;;4.35;;
41446;SDS011;27185;52.040;4.490;2023-09-30T02:37:31;7.78;;;4.22;;
41446;SDS011;27185;52.040;4.490;2023-09-30T02:40:20;7.32;;;3.97;;
41446;SDS011;27185;52.040;4.490;2023-09-30T02:43:09;5.78;;;3.72;;
41446;SDS011;27185;52.040;4.490;2023-09-30T02:45:55;7.93;;;3.80;;
41446;SDS011;27185;52.040;4.490;2023-09-30T02:48:40;10.02;;;4.47;;
41446;SDS011;27185;52.040;4.490;2023-09-30T02:51:26;7.93;;;4.22;;
41446;SDS011;27185;52.040;4.490;2023-09-30T02:54:12;10.10;;;4.07;;
41446;SDS011;27185;52.040;4.490;2023-09-30T02:57:00;9.23;;;4.35;;
41446;SDS011;27185;52.040;4.490;2023-09-30T02:59:48;9.60;;;4.15;;
41446;SDS011;27185;52.040;4.490;2023-09-30T03:02:34;12.38;;;4.15;;
41446;SDS011;27185;52.040;4.490;2023-09-30T03:05:20;9.38;;;4.43;;
41446;SDS011;27185;52.040;4.490;2023-09-30T03:08:05;10.88;;;4.45;;
41446;SDS011;27185;52.040;4.490;2023-09-30T03:10:51;7.93;;;4.38;;
41446;SDS011;27185;52.040;4.490;2023-09-30T03:13:38;9.70;;;4.78;;
41446;SDS011;27185;52.040;4.490;2023-09-30T03:16:27;7.03;;;4.70;;
41446;SDS011;27185;52.040;4.490;2023-09-30T03:19:12;8.80;;;4.80;;
41446;SDS011;27185;52.040;4.490;2023-09-30T03:22:01;11.32;;;5.25;;
41446;SDS011;27185;52.040;4.490;2023-09-30T03:24:49;9.32;;;4.75;;
41446;SDS011;27185;52.040;4.490;2023-09-30T03:27:35;9.70;;;5.10;;
41446;SDS011;27185;52.040;4.490;2023-09-30T03:30:21;6.35;;;4.15;;
41446;SDS011;27185;52.040;4.490;2023-09-30T03:33:06;7.65;;;5.10;;
41446;SDS011;27185;52.040;4.490;2023-09-30T03:35:52;8.88;;;4.90;;
41446;SDS011;27185;52.040;4.490;2023-09-30T03:38:38;8.00;;;4.38;;
41446;SDS011;27185;52.040;4.490;2023-09-30T03:41:26;10.50;;;4.38;;
41446;SDS011;27185;52.040;4.490;2023-09-30T03:44:13;8.83;;;4.60;;
41446;SDS011;27185;52.040;4.490;2023-09-30T03:46:59;9.60;;;4.82;;
41446;SDS011;27185;52.040;4.490;2023-09-30T03:49:45;8.88;;;4.57;;
41446;SDS011;27185;52.040;4.490;2023-09-30T03:52:33;6.75;;;4.40;;
41446;SDS011;27185;52.040;4.490;2023-09-30T03:55:19;8.90;;;5.50;;
41446;SDS011;27185;52.040;4.490;2023-09-30T03:58:05;10.10;;;5.05;;
41446;SDS011;27185;52.040;4.490;2023-09-30T04:00:51;10.50;;;4.97;;
41446;SDS011;27185;52.040;4.490;2023-09-30T04:03:37;7.80;;;4.70;;
41446;SDS011;27185;52.040;4.490;2023-09-30T04:06:28;9.27;;;5.18;;
41446;SDS011;27185;52.040;4.490;2023-09-30T04:09:14;13.00;;;5.15;;
41446;SDS011;27185;52.040;4.490;2023-09-30T04:12:01;11.20;;;5.27;;
41446;SDS011;27185;52.040;4.490;2023-09-30T04:14:47;10.80;;;5.55;;
41446;SDS011;27185;52.040;4.490;2023-09-30T04:17:33;10.02;;;5.78;;
41446;SDS011;27185;52.040;4.490;2023-09-30T04:20:19;11.20;;;5.90;;
41446;SDS011;27185;52.040;4.490;2023-09-30T04:23:08;11.88;;;5.82;;
41446;SDS011;27185;52.040;4.490;2023-09-30T04:25:55;9.47;;;5.53;;
41446;SDS011;27185;52.040;4.490;2023-09-30T04:28:40;9.65;;;5.57;;
41446;SDS011;27185;52.040;4.490;2023-09-30T04:31:28;12.65;;;5.90;;
41446;SDS011;27185;52.040;4.490;2023-09-30T04:34:13;9.35;;;5.80;;
41446;SDS011;27185;52.040;4.490;2023-09-30T04:36:59;9.13;;;5.88;;
41446;SDS011;27185;52.040;4.490;2023-09-30T04:39:45;12.88;;;5.45;;
41446;SDS011;27185;52.040;4.490;2023-09-30T04:42:31;10.35;;;5.53;;
41446;SDS011;27185;52.040;4.490;2023-09-30T04:45:16;13.48;;;5.60;;
41446;SDS011;27185;52.040;4.490;2023-09-30T04:48:05;13.50;;;6.20;;
41446;SDS011;27185;52.040;4.490;2023-09-30T04:50:51;10.60;;;5.82;;
41446;SDS011;27185;52.040;4.490;2023-09-30T04:53:37;8.15;;;6.18;;
41446;SDS011;27185;52.040;4.490;2023-09-30T04:56:23;10.60;;;6.25;;
41446;SDS011;27185;52.040;4.490;2023-09-30T04:59:10;9.63;;;6.20;;
41446;SDS011;27185;52.040;4.490;2023-09-30T05:01:55;10.93;;;6.47;;
41446;SDS011;27185;52.040;4.490;2023-09-30T05:04:41;13.77;;;7.80;;
41446;SDS011;27185;52.040;4.490;2023-09-30T05:07:27;12.23;;;6.07;;
41446;SDS011;27185;52.040;4.490;2023-09-30T05:10:14;11.07;;;5.78;;
41446;SDS011;27185;52.040;4.490;2023-09-30T05:15:48;8.82;;;5.20;;
41446;SDS011;27185;52.040;4.490;2023-09-30T05:18:33;10.88;;;6.10;;
41446;SDS011;27185;52.040;4.490;2023-09-30T05:21:20;11.55;;;7.00;;
41446;SDS011;27185;52.040;4.490;2023-09-30T05:24:06;16.42;;;6.10;;
41446;SDS011;27185;52.040;4.490;2023-09-30T05:26:52;9.73;;;6.38;;
41446;SDS011;27185;52.040;4.490;2023-09-30T05:29:37;12.65;;;6.05;;
41446;SDS011;27185;52.040;4.490;2023-09-30T05:32:23;11.80;;;6.05;;
41446;SDS011;27185;52.040;4.490;2023-09-30T05:35:11;11.73;;;5.95;;
41446;SDS011;27185;52.040;4.490;2023-09-30T05:37:58;11.50;;;6.72;;
41446;SDS011;27185;52.040;4.490;2023-09-30T05:40:43;13.93;;;7.18;;
41446;SDS011;27185;52.040;4.490;2023-09-30T05:43:29;14.27;;;7.15;;
41446;SDS011;27185;52.040;4.490;2023-09-30T05:46:15;14.02;;;7.07;;
41446;SDS011;27185;52.040;4.490;2023-09-30T05:49:00;15.43;;;9.05;;
41446;SDS011;27185;52.040;4.490;2023-09-30T05:51:46;12.98;;;8.63;;
41446;SDS011;27185;52.040;4.490;2023-09-30T05:54:32;15.20;;;8.77;;
41446;SDS011;27185;52.040;4.490;2023-09-30T05:57:18;12.55;;;8.18;;
41446;SDS011;27185;52.040;4.490;2023-09-30T06:00:04;16.67;;;10.15;;
41446;SDS011;27185;52.040;4.490;2023-09-30T06:03:10;17.67;;;9.98;;
41446;SDS011;27185;52.040;4.490;2023-09-30T06:05:56;14.93;;;9.20;;
41446;SDS011;27185;52.040;4.490;2023-09-30T06:08:44;13.95;;;9.15;;
41446;SDS011;27185;52.040;4.490;2023-09-30T06:11:30;15.20;;;9.90;;
41446;SDS011;27185;52.040;4.490;2023-09-30T06:14:16;16.35;;;9.57;;
41446;SDS011;27185;52.040;4.490;2023-09-30T06:17:02;18.20;;;10.52;;
41446;SDS011;27185;52.040;4.490;2023-09-30T06:19:47;17.65;;;9.77;;
41446;SDS011;27185;52.040;4.490;2023-09-30T06:22:35;17.33;;;10.23;;
41446;SDS011;27185;52.040;4.490;2023-09-30T06:25:21;16.58;;;10.77;;
41446;SDS011;27185;52.040;4.490;2023-09-30T06:30:54;16.27;;;9.02;;
41446;SDS011;27185;52.040;4.490;2023-09-30T06:33:40;17.15;;;10.93;;
41446;SDS011;27185;52.040;4.490;2023-09-30T06:36:27;18.13;;;11.85;;
41446;SDS011;27185;52.040;4.490;2023-09-30T06:39:12;20.88;;;11.75;;
41446;SDS011;27185;52.040;4.490;2023-09-30T06:41:58;19.45;;;12.05;;
41446;SDS011;27185;52.040;4.490;2023-09-30T06:44:43;21.55;;;12.68;;
41446;SDS011;27185;52.040;4.490;2023-09-30T06:47:29;19.55;;;12.07;;
41446;SDS011;27185;52.040;4.490;2023-09-30T06:50:18;21.30;;;12.27;;
41446;SDS011;27185;52.040;4.490;2023-09-30T06:53:06;19.35;;;11.57;;
41446;SDS011;27185;52.040;4.490;2023-09-30T06:55:54;16.38;;;11.30;;
41446;SDS011;27185;52.040;4.490;2023-09-30T06:58:40;19.75;;;12.18;;
41446;SDS011;27185;52.040;4.490;2023-09-30T07:01:26;17.83;;;11.45;;
41446;SDS011;27185;52.040;4.490;2023-09-30T07:04:13;17.67;;;12.32;;
41446;SDS011;27185;52.040;4.490;2023-09-30T07:06:59;17.98;;;11.85;;
41446;SDS011;27185;52.040;4.490;2023-09-30T07:09:45;21.67;;;14.27;;
41446;SDS011;27185;52.040;4.490;2023-09-30T07:12:30;21.58;;;13.95;;
41446;SDS011;27185;52.040;4.490;2023-09-30T07:15:16;18.55;;;12.85;;
41446;SDS011;27185;52.040;4.490;2023-09-30T07:18:03;22.50;;;14.23;;
41446;SDS011;27185;52.040;4.490;2023-09-30T07:20:49;31.65;;;18.38;;
41446;SDS011;27185;52.040;4.490;2023-09-30T07:23:34;21.30;;;14.73;;
41446;SDS011;27185;52.040;4.490;2023-09-30T07:26:24;24.77;;;15.05;;
41446;SDS011;27185;52.040;4.490;2023-09-30T07:29:10;25.38;;;16.30;;
41446;SDS011;27185;52.040;4.490;2023-09-30T07:31:55;30.67;;;16.13;;
41446;SDS011;27185;52.040;4.490;2023-09-30T07:34:41;30.00;;;17.55;;
41446;SDS011;27185;52.040;4.490;2023-09-30T07:37:27;29.60;;;17.70;;
41446;SDS011;27185;52.040;4.490;2023-09-30T07:40:12;25.45;;;16.92;;
41446;SDS011;27185;52.040;4.490;2023-09-30T07:43:00;26.90;;;17.40;;
41446;SDS011;27185;52.040;4.490;2023-09-30T07:45:45;26.30;;;16.88;;
41446;SDS011;27185;52.040;4.490;2023-09-30T07:48:31;23.95;;;15.88;;
41446;SDS011;27185;52.040;4.490;2023-09-30T07:51:17;28.35;;;16.33;;
41446;SDS011;27185;52.040;4.490;2023-09-30T07:54:03;26.88;;;15.25;;
41446;SDS011;27185;52.040;4.490;2023-09-30T07:56:49;28.38;;;17.95;;
41446;SDS011;27185;52.040;4.490;2023-09-30T07:59:34;25.08;;;15.48;;
41446;SDS011;27185;52.040;4.490;2023-09-30T08:02:20;26.10;;;15.73;;
41446;SDS011;27185;52.040;4.490;2023-09-30T08:05:07;20.55;;;14.60;;
41446;SDS011;27185;52.040;4.490;2023-09-30T08:07:54;21.48;;;13.10;;
41446;SDS011;27185;52.040;4.490;2023-09-30T08:10:39;23.10;;;14.48;;
41446;SDS011;27185;52.040;4.490;2023-09-30T08:13:25;23.13;;;12.70;;
41446;SDS011;27185;52.040;4.490;2023-09-30T08:16:11;23.35;;;13.73;;
41446;SDS011;27185;52.040;4.490;2023-09-30T08:18:57;21.92;;;12.48;;
41446;SDS011;27185;52.040;4.490;2023-09-30T08:21:42;22.73;;;11.93;;
41446;SDS011;27185;52.040;4.490;2023-09-30T08:24:29;16.80;;;9.80;;
41446;SDS011;27185;52.040;4.490;2023-09-30T08:27:15;20.55;;;10.25;;
41446;SDS011;27185;52.040;4.490;2023-09-30T08:30:00;18.25;;;10.60;;
41446;SDS011;27185;52.040;4.490;2023-09-30T08:32:50;19.90;;;9.82;;
41446;SDS011;27185;52.040;4.490;2023-09-30T08:35:38;16.00;;;9.55;;
41446;SDS011;27185;52.040;4.490;2023-09-30T08:38:26;19.23;;;9.20;;
41446;SDS011;27185;52.040;4.490;2023-09-30T08:41:12;17.15;;;8.88;;
41446;SDS011;27185;52.040;4.490;2023-09-30T08:44:17;19.85;;;9.40;;
41446;SDS011;27185;52.040;4.490;2023-09-30T08:47:02;18.27;;;8.18;;
41446;SDS011;27185;52.040;4.490;2023-09-30T08:49:48;15.02;;;7.95;;
41446;SDS011;27185;52.040;4.490;2023-09-30T08:52:42;14.52;;;7.47;;
41446;SDS011;27185;52.040;4.490;2023-09-30T08:55:28;14.98;;;7.90;;
41446;SDS011;27185;52.040;4.490;2023-09-30T08:58:14;17.40;;;7.68;;
41446;SDS011;27185;52.040;4.490;2023-09-30T09:01:01;15.63;;;7.38;;
41446;SDS011;27185;52.040;4.490;2023-09-30T09:03:46;12.63;;;6.57;;
41446;SDS011;27185;52.040;4.490;2023-09-30T09:06:37;14.48;;;6.25;;
41446;SDS011;27185;52.040;4.490;2023-09-30T09:09:23;18.65;;;6.70;;
41446;SDS011;27185;52.040;4.490;2023-09-30T09:12:26;13.85;;;6.05;;
41446;SDS011;27185;52.040;4.490;2023-09-30T09:15:20;12.73;;;4.78;;
41446;SDS011;27185;52.040;4.490;2023-09-30T09:18:09;12.70;;;5.05;;
41446;SDS011;27185;52.040;4.490;2023-09-30T09:21:18;13.70;;;4.90;;
41446;SDS011;27185;52.040;4.490;2023-09-30T09:24:07;12.75;;;4.47;;
41446;SDS011;27185;52.040;4.490;2023-09-30T09:26:53;10.90;;;5.18;;
41446;SDS011;27185;52.040;4.490;2023-09-30T09:29:49;15.02;;;5.07;;
41446;SDS011;27185;52.040;4.490;2023-09-30T09:32:35;13.60;;;5.25;;
41446;SDS011;27185;52.040;4.490;2023-09-30T09:35:21;12.77;;;4.38;;
41446;SDS011;27185;52.040;4.490;2023-09-30T09:38:07;7.75;;;3.22;;
41446;SDS011;27185;52.040;4.490;2023-09-30T09:40:58;9.57;;;2.75;;
41446;SDS011;27185;52.040;4.490;2023-09-30T09:43:45;11.13;;;2.92;;
41446;SDS011;27185;52.040;4.490;2023-09-30T09:46:35;8.43;;;3.53;;
41446;SDS011;27185;52.040;4.490;2023-09-30T09:49:21;9.55;;;2.33;;
41446;SDS011;27185;52.040;4.490;2023-09-30T09:52:06;6.18;;;1.40;;
41446;SDS011;27185;52.040;4.490;2023-09-30T09:54:52;7.30;;;1.45;;
41446;SDS011;27185;52.040;4.490;2023-09-30T09:57:39;7.70;;;1.67;;
41446;SDS011;27185;52.040;4.490;2023-09-30T10:00:26;12.00;;;1.85;;
41446;SDS011;27185;52.040;4.490;2023-09-30T10:03:12;6.60;;;1.20;;
41446;SDS011;27185;52.040;4.490;2023-09-30T10:05:58;8.75;;;2.20;;
41446;SDS011;27185;52.040;4.490;2023-09-30T10:08:44;7.00;;;1.07;;
41446;SDS011;27185;52.040;4.490;2023-09-30T10:11:32;7.18;;;1.40;;
41446;SDS011;27185;52.040;4.490;2023-09-30T10:14:30;7.95;;;1.50;;
41446;SDS011;27185;52.040;4.490;2023-09-30T10:17:49;7.72;;;1.50;;
41446;SDS011;27185;52.040;4.490;2023-09-30T10:20:45;5.10;;;1.00;;
41446;SDS011;27185;52.040;4.490;2023-09-30T10:23:33;6.95;;;1.88;;
41446;SDS011;27185;52.040;4.490;2023-09-30T10:26:19;8.85;;;1.70;;
41446;SDS011;27185;52.040;4.490;2023-09-30T10:29:08;6.97;;;1.63;;
41446;SDS011;27185;52.040;4.490;2023-09-30T10:31:54;8.65;;;1.50;;
41446;SDS011;27185;52.040;4.490;2023-09-30T10:34:47;11.35;;;1.92;;
41446;SDS011;27185;52.040;4.490;2023-09-30T10:37:33;6.03;;;1.77;;
41446;SDS011;27185;52.040;4.490;2023-09-30T10:40:29;7.15;;;1.80;;
41446;SDS011;27185;52.040;4.490;2023-09-30T10:43:31;7.47;;;1.60;;
41446;SDS011;27185;52.040;4.490;2023-09-30T10:49:16;9.55;;;1.58;;
41446;SDS011;27185;52.040;4.490;2023-09-30T10:52:07;4.70;;;1.40;;
41446;SDS011;27185;52.040;4.490;2023-09-30T10:54:53;6.75;;;1.27;;
41446;SDS011;27185;52.040;4.490;2023-09-30T10:57:39;9.93;;;1.65;;
41446;SDS011;27185;52.040;4.490;2023-09-30T11:00:25;7.10;;;1.45;;
41446;SDS011;27185;52.040;4.490;2023-09-30T11:03:11;6.95;;;1.55;;
41446;SDS011;27185;52.040;4.490;2023-09-30T11:05:57;8.55;;;1.70;;
41446;SDS011;27185;52.040;4.490;2023-09-30T11:08:44;9.80;;;1.73;;
41446;SDS011;27185;52.040;4.490;2023-09-30T11:11:45;7.30;;;1.60;;
41446;SDS011;27185;52.040;4.490;2023-09-30T11:14:33;11.43;;;1.80;;
41446;SDS011;27185;52.040;4.490;2023-09-30T11:17:21;7.68;;;2.03;;
41446;SDS011;27185;52.040;4.490;2023-09-30T11:20:07;10.70;;;2.28;;
41446;SDS011;27185;52.040;4.490;2023-09-30T11:22:54;8.23;;;1.60;;
41446;SDS011;27185;52.040;4.490;2023-09-30T11:25:42;5.93;;;1.90;;
41446;SDS011;27185;52.040;4.490;2023-09-30T11:28:35;9.25;;;2.20;;
41446;SDS011;27185;52.040;4.490;2023-09-30T11:31:21;5.82;;;1.60;;
41446;SDS011;27185;52.040;4.490;2023-09-30T11:34:07;6.30;;;1.73;;
41446;SDS011;27185;52.040;4.490;2023-09-30T11:36:53;6.32;;;1.58;;
41446;SDS011;27185;52.040;4.490;2023-09-30T11:39:39;8.10;;;1.77;;
41446;SDS011;27185;52.040;4.490;2023-09-30T11:42:25;6.95;;;1.60;;
41446;SDS011;27185;52.040;4.490;2023-09-30T11:45:20;7.38;;;1.60;;
41446;SDS011;27185;52.040;4.490;2023-09-30T11:48:19;7.05;;;1.20;;
41446;SDS011;27185;52.040;4.490;2023-09-30T11:51:05;8.98;;;1.98;;
41446;SDS011;27185;52.040;4.490;2023-09-30T11:53:51;9.23;;;1.73;;
41446;SDS011;27185;52.040;4.490;2023-09-30T11:56:38;8.50;;;1.70;;
41446;SDS011;27185;52.040;4.490;2023-09-30T11:59:24;9.40;;;1.75;;
41446;SDS011;27185;52.040;4.490;2023-09-30T12:02:10;6.60;;;1.80;;
41446;SDS011;27185;52.040;4.490;2023-09-30T12:04:57;5.37;;;1.23;;
41446;SDS011;27185;52.040;4.490;2023-09-30T12:07:43;8.73;;;1.75;;
41446;SDS011;27185;52.040;4.490;2023-09-30T12:10:29;6.50;;;1.83;;
41446;SDS011;27185;52.040;4.490;2023-09-30T12:13:16;7.50;;;1.85;;
41446;SDS011;27185;52.040;4.490;2023-09-30T12:16:01;10.57;;;1.95;;
41446;SDS011;27185;52.040;4.490;2023-09-30T12:18:48;5.90;;;1.63;;
41446;SDS011;27185;52.040;4.490;2023-09-30T12:21:34;8.20;;;2.20;;
41446;SDS011;27185;52.040;4.490;2023-09-30T12:24:21;7.38;;;2.20;;
41446;SDS011;27185;52.040;4.490;2023-09-30T12:29:54;11.63;;;2.08;;
41446;SDS011;27185;52.040;4.490;2023-09-30T12:32:40;5.85;;;1.42;;
41446;SDS011;27185;52.040;4.490;2023-09-30T12:35:26;8.65;;;1.90;;
41446;SDS011;27185;52.040;4.490;2023-09-30T12:38:12;9.80;;;2.17;;
41446;SDS011;27185;52.040;4.490;2023-09-30T12:40:57;9.20;;;1.95;;
41446;SDS011;27185;52.040;4.490;2023-09-30T12:43:43;8.80;;;2.03;;
41446;SDS011;27185;52.040;4.490;2023-09-30T12:46:29;6.32;;;2.35;;
41446;SDS011;27185;52.040;4.490;2023-09-30T12:49:17;8.23;;;2.22;;
41446;SDS011;27185;52.040;4.490;2023-09-30T12:52:05;8.68;;;2.47;;
41446;SDS011;27185;52.040;4.490;2023-09-30T12:54:50;7.70;;;2.25;;
41446;SDS011;27185;52.040;4.490;2023-09-30T12:57:36;10.57;;;2.55;;
41446;SDS011;27185;52.040;4.490;2023-09-30T13:00:22;9.02;;;2.30;;
41446;SDS011;27185;52.040;4.490;2023-09-30T13:03:09;12.13;;;3.00;;
41446;SDS011;27185;52.040;4.490;2023-09-30T13:08:43;7.75;;;2.00;;
41446;SDS011;27185;52.040;4.490;2023-09-30T13:11:28;8.27;;;2.60;;
41446;SDS011;27185;52.040;4.490;2023-09-30T13:14:14;11.38;;;2.47;;
41446;SDS011;27185;52.040;4.490;2023-09-30T13:16:59;6.38;;;1.92;;
41446;SDS011;27185;52.040;4.490;2023-09-30T13:19:46;8.38;;;2.17;;
41446;SDS011;27185;52.040;4.490;2023-09-30T13:22:31;9.05;;;2.15;;
41446;SDS011;27185;52.040;4.490;2023-09-30T13:25:17;10.05;;;2.50;;
41446;SDS011;27185;52.040;4.490;2023-09-30T13:28:02;9.35;;;2.70;;
41446;SDS011;27185;52.040;4.490;2023-09-30T13:30:48;11.75;;;2.63;;
41446;SDS011;27185;52.040;4.490;2023-09-30T13:33:34;8.20;;;1.73;;
41446;SDS011;27185;52.040;4.490;2023-09-30T13:36:21;6.57;;;1.40;;
41446;SDS011;27185;52.040;4.490;2023-09-30T13:39:06;8.60;;;1.42;;
41446;SDS011;27185;52.040;4.490;2023-09-30T13:41:52;7.20;;;1.60;;
41446;SDS011;27185;52.040;4.490;2023-09-30T13:44:38;9.57;;;1.83;;
41446;SDS011;27185;52.040;4.490;2023-09-30T13:47:24;6.13;;;1.80;;
41446;SDS011;27185;52.040;4.490;2023-09-30T13:50:10;8.33;;;1.33;;
41446;SDS011;27185;52.040;4.490;2023-09-30T13:52:55;6.53;;;1.45;;
41446;SDS011;27185;52.040;4.490;2023-09-30T13:55:42;6.07;;;1.55;;
41446;SDS011;27185;52.040;4.490;2023-09-30T13:58:27;5.65;;;1.35;;
41446;SDS011;27185;52.040;4.490;2023-09-30T14:01:13;9.52;;;1.58;;
41446;SDS011;27185;52.040;4.490;2023-09-30T14:03:59;10.20;;;1.80;;
41446;SDS011;27185;52.040;4.490;2023-09-30T14:06:45;10.63;;;2.03;;
41446;SDS011;27185;52.040;4.490;2023-09-30T14:09:32;6.13;;;1.00;;
41446;SDS011;27185;52.040;4.490;2023-09-30T14:12:18;6.63;;;1.20;;
41446;SDS011;27185;52.040;4.490;2023-09-30T14:15:05;6.53;;;1.20;;
41446;SDS011;27185;52.040;4.490;2023-09-30T14:17:51;6.90;;;1.40;;
41446;SDS011;27185;52.040;4.490;2023-09-30T14:20:36;6.20;;;1.25;;
41446;SDS011;27185;52.040;4.490;2023-09-30T14:23:22;7.35;;;1.33;;
41446;SDS011;27185;52.040;4.490;2023-09-30T14:26:08;5.85;;;1.00;;
41446;SDS011;27185;52.040;4.490;2023-09-30T14:28:55;9.65;;;1.60;;
41446;SDS011;27185;52.040;4.490;2023-09-30T14:31:41;7.63;;;1.63;;
41446;SDS011;27185;52.040;4.490;2023-09-30T14:34:27;15.65;;;1.80;;
41446;SDS011;27185;52.040;4.490;2023-09-30T14:37:13;7.25;;;1.00;;
41446;SDS011;27185;52.040;4.490;2023-09-30T14:39:58;8.07;;;1.25;;
41446;SDS011;27185;52.040;4.490;2023-09-30T14:42:44;5.18;;;1.23;;
41446;SDS011;27185;52.040;4.490;2023-09-30T14:45:29;7.60;;;1.20;;
41446;SDS011;27185;52.040;4.490;2023-09-30T14:48:16;7.63;;;1.10;;
41446;SDS011;27185;52.040;4.490;2023-09-30T14:51:01;4.85;;;1.13;;
41446;SDS011;27185;52.040;4.490;2023-09-30T14:56:34;6.53;;;1.30;;
41446;SDS011;27185;52.040;4.490;2023-09-30T14:59:20;8.93;;;1.65;;
41446;SDS011;27185;52.040;4.490;2023-09-30T15:02:07;7.13;;;1.10;;
41446;SDS011;27185;52.040;4.490;2023-09-30T15:04:53;4.85;;;1.10;;
41446;SDS011;27185;52.040;4.490;2023-09-30T15:07:39;8.45;;;1.33;;
41446;SDS011;27185;52.040;4.490;2023-09-30T15:10:25;6.72;;;1.15;;
41446;SDS011;27185;52.040;4.490;2023-09-30T15:13:11;5.93;;;1.30;;
41446;SDS011;27185;52.040;4.490;2023-09-30T15:15:56;6.93;;;1.20;;
41446;SDS011;27185;52.040;4.490;2023-09-30T15:18:42;8.27;;;1.55;;
41446;SDS011;27185;52.040;4.490;2023-09-30T15:21:28;5.82;;;1.17;;
41446;SDS011;27185;52.040;4.490;2023-09-30T15:24:13;7.60;;;1.75;;
41446;SDS011;27185;52.040;4.490;2023-09-30T15:26:59;7.18;;;1.17;;
41446;SDS011;27185;52.040;4.490;2023-09-30T15:29:46;7.23;;;0.90;;
41446;SDS011;27185;52.040;4.490;2023-09-30T15:32:32;6.85;;;1.50;;
41446;SDS011;27185;52.040;4.490;2023-09-30T15:35:18;8.23;;;1.45;;
41446;SDS011;27185;52.040;4.490;2023-09-30T15:38:04;4.53;;;0.98;;
41446;SDS011;27185;52.040;4.490;2023-09-30T15:40:51;6.97;;;1.58;;
41446;SDS011;27185;52.040;4.490;2023-09-30T15:43:46;7.45;;;1.02;;
41446;SDS011;27185;52.040;4.490;2023-09-30T15:46:32;6.30;;;1.45;;
41446;SDS011;27185;52.040;4.490;2023-09-30T15:49:18;4.97;;;1.10;;
41446;SDS011;27185;52.040;4.490;2023-09-30T15:52:03;6.05;;;1.05;;
41446;SDS011;27185;52.040;4.490;2023-09-30T15:54:50;7.82;;;1.00;;
41446;SDS011;27185;52.040;4.490;2023-09-30T15:57:35;7.53;;;1.20;;
41446;SDS011;27185;52.040;4.490;2023-09-30T16:00:21;6.50;;;1.25;;
41446;SDS011;27185;52.040;4.490;2023-09-30T16:03:07;6.25;;;1.20;;
41446;SDS011;27185;52.040;4.490;2023-09-30T16:05:53;6.17;;;1.10;;
41446;SDS011;27185;52.040;4.490;2023-09-30T16:08:39;6.10;;;1.13;;
41446;SDS011;27185;52.040;4.490;2023-09-30T16:11:26;5.27;;;1.03;;
41446;SDS011;27185;52.040;4.490;2023-09-30T16:14:12;4.35;;;1.00;;
41446;SDS011;27185;52.040;4.490;2023-09-30T16:16:58;8.02;;;1.13;;
41446;SDS011;27185;52.040;4.490;2023-09-30T16:19:45;7.47;;;1.20;;
41446;SDS011;27185;52.040;4.490;2023-09-30T16:22:31;6.72;;;1.25;;
41446;SDS011;27185;52.040;4.490;2023-09-30T16:25:16;5.75;;;1.10;;
41446;SDS011;27185;52.040;4.490;2023-09-30T16:28:02;10.00;;;1.38;;
41446;SDS011;27185;52.040;4.490;2023-09-30T16:30:50;7.57;;;1.20;;
41446;SDS011;27185;52.040;4.490;2023-09-30T16:33:35;10.93;;;1.33;;
41446;SDS011;27185;52.040;4.490;2023-09-30T16:36:21;6.75;;;1.20;;
41446;SDS011;27185;52.040;4.490;2023-09-30T16:39:07;4.70;;;0.88;;
41446;SDS011;27185;52.040;4.490;2023-09-30T16:41:52;5.07;;;1.10;;
41446;SDS011;27185;52.040;4.490;2023-09-30T16:44:38;4.80;;;0.70;;
41446;SDS011;27185;52.040;4.490;2023-09-30T16:47:24;5.22;;;0.90;;
41446;SDS011;27185;52.040;4.490;2023-09-30T16:50:10;6.82;;;0.98;;
41446;SDS011;27185;52.040;4.490;2023-09-30T16:52:55;6.30;;;1.27;;
41446;SDS011;27185;52.040;4.490;2023-09-30T16:55:41;6.40;;;1.40;;